Have a Safe July 4th! 

Flight Track Log - Related Links

Times and Time Zones

All times are in EDT time to prevent confusion due to time zone crossing. See the N605SA flight status page for this flight to view local times or setup timezone preferences in your user account.

Time Position Orientation Groundspeed Altitude Reporting Facility
EDT Latitude Longitude Course Direction KTS MPH feet Rate Location/Type
Fri 03:02:55 PM 42.9333 -87.9167 244° Southwest 171 197 1,400  Level KMKE
Fri 03:03:31 PM 42.9231 -87.9456 244° Southwest 179 206 2,100 2,143 Climbing Chicago Center
Fri 03:04:33 PM 42.8636 -87.8794 141° Southeast 276 318 4,900 2,758 Climbing Chicago Center
Fri 03:05:35 PM 42.8225 -87.7850 121° Southeast 292 336 7,800 2,468 Climbing Chicago Center
Fri 03:06:37 PM 42.7586 -87.7103 139° Southeast 299 344 10,000 2,177 Climbing Chicago Center
Fri 03:07:39 PM 42.6975 -87.6158 131° Southeast 324 373 12,300 2,226 Climbing Chicago Center
Fri 03:08:41 PM 42.6339 -87.5169 131° Southeast 341 392 14,600 2,177 Climbing Chicago Center
Fri 03:09:43 PM 42.5558 -87.4017 133° Southeast 358 412 16,800 1,887 Climbing Chicago Center
Fri 03:10:45 PM 42.4831 -87.2964 133° Southeast 378 435 18,500 1,632 Climbing Chicago Center
Fri 03:11:48 PM 42.4086 -87.1897 133° Southeast 388 447 20,200 1,584 Climbing Chicago Center
Fri 03:12:50 PM 42.3333 -87.0811 133° Southeast 395 455 21,800 1,597 Climbing Chicago Center
Fri 03:13:52 PM 42.2617 -86.9664 130° Southeast 400 460 23,500 1,694 Climbing Chicago Center
Fri 03:14:54 PM 42.1761 -86.8281 130° Southeast 401 461 25,300 1,645 Climbing Chicago Center
Fri 03:15:56 PM 42.1042 -86.7164 131° Southeast 398 458 26,900 1,355 Climbing Chicago Center
Fri 03:16:58 PM 42.0369 -86.6106 131° Southeast 396 456 28,100 1,016 Climbing Chicago Center
Fri 03:18:00 PM 41.9661 -86.4947 129° Southeast 400 460 29,000 435 Climbing Chicago Center
Fri 03:19:02 PM 41.8872 -86.3756 132° Southeast 418 481 29,000  Level Chicago Center
Fri 03:20:04 PM 41.7828 -86.2342 135° Southeast 440 506 29,000  Level Chicago Center
Fri 03:21:06 PM 41.6894 -86.1158 137° Southeast 456 525 29,000  Level Chicago Center
Fri 03:22:09 PM 41.5981 -85.9931 135° Southeast 467 537 29,000  Level Chicago Center
Fri 03:23:11 PM 41.5083 -85.8775 136° Southeast 458 527 29,000  Level Chicago Center
Fri 03:24:13 PM 41.4056 -85.7419 135° Southeast 441 507 29,000  Level Chicago Center
Fri 03:25:15 PM 41.3214 -85.6306 135° Southeast 434 499 29,000  Level Chicago Center
Fri 03:26:17 PM 41.2372 -85.5203 135° Southeast 431 496 29,000  Level Chicago Center
Fri 03:27:19 PM 41.1531 -85.4133 136° Southeast 425 489 29,000  Level Chicago Center
Fri 03:28:21 PM 41.0686 -85.3053 136° Southeast 426 490 29,000 -871 Level Chicago Center
Fri 03:29:23 PM 40.9722 -85.1611 131° Southeast 440 506 27,200 -1,790 Descending Chicago Center
Fri 03:30:25 PM 40.9219 -85.0081 113° Southeast 457 526 25,300 -1,776 Descending Chicago Center
Fri 03:31:28 PM 40.8775 -84.8592 112° Southeast 442 509 23,500 -1,200 Descending Chicago Center
Fri 03:32:20 PM 40.8333 -84.7208 113° Southeast 432 497 23,000 -263 Descending Indianapolis Center
Fri 03:33:22 PM 40.7881 -84.5719 112° Southeast 435 501 23,000 -629 Level Indianapolis Center
Fri 03:34:24 PM 40.7419 -84.4222 112° Southeast 437 503 21,700 -1,355 Descending Indianapolis Center
Fri 03:35:26 PM 40.6967 -84.2753 112° Southeast 431 496 20,200 -1,452 Descending Indianapolis Center
Fri 03:36:28 PM 40.6503 -84.1322 113° Southeast 420 483 18,700 -1,452 Descending Indianapolis Center
Fri 03:37:30 PM 40.6058 -83.9919 113° Southeast 413 475 17,200 -1,984 Descending Indianapolis Center
Fri 03:38:32 PM 40.5636 -83.8578 112° Southeast 399 459 14,600 -2,471 Descending Indianapolis Center
Fri 03:39:29 PM 40.5178 -83.7200 114° Southeast 379 436 12,300 -1,756 Descending Indianapolis Center
Fri 03:40:35 PM 40.4739 -83.5789 112° Southeast 380 437 11,000 -757 Descending Indianapolis Center
Fri 03:41:12 PM 40.4444 -83.5064 118° Southeast 378 435 11,000 -429 Level Indianapolis Center
Fri 03:42:13 PM 40.3914 -83.3847 120° Southeast 367 422 10,300 -1,038 Descending Indianapolis Center
Fri 03:43:25 PM 40.3422 -83.2639 118° Southeast 313 360 8,700 -1,417 Descending Indianapolis Center
Fri 03:44:20 PM 40.3044 -83.1753 119° Southeast 297 342 7,300 -1,397 Descending Indianapolis Center
Fri 03:45:21 PM 40.2631 -83.0808 120° Southeast 296 341 6,000 -709 Descending Indianapolis Center
Fri 03:46:10 PM 40.2306 -83.0042 119° Southeast 292 336 6,000  Level Indianapolis Center
Fri 03:46:47 PM 40.2111 -82.9578 119° Southeast 294 338 6,000 -545 Level Indianapolis Center
Fri 03:47:49 PM 40.1672 -82.8633 121° Southeast 299 344 5,100 -1,161 Descending Indianapolis Center
Fri 03:48:51 PM 40.1178 -82.7836 129° Southeast 283 326 3,600 -1,016 Descending Indianapolis Center
Fri 03:49:53 PM 40.0483 -82.7558 163° South 238 274 3,000 -532 Descending Indianapolis Center
Fri 03:50:55 PM 40.0128 -82.7958 221° Southwest 188 216 2,500 -823 Descending Indianapolis Center
Fri 03:51:57 PM 39.9886 -82.8372 233° Southwest 159 183 1,300 -677 Descending Indianapolis Center
Fri 03:52:59 PM 39.9983 -82.8964 282° West 153 176 1,100 -194 Descending Indianapolis Center

Login

Don't have an account? Register now (free) for customized features, flight alerts, and more!